createdAt,value
2019-04-07T00:02:21.224Z,100152.61
2019-04-07T00:04:51.411Z,100156.67
2019-04-07T00:07:21.586Z,100159.60
2019-04-07T00:09:54.149Z,100159.91
2019-04-07T00:12:24.336Z,100157.11
2019-04-07T00:14:55.228Z,100157.13
2019-04-07T00:17:26.142Z,100158.20
2019-04-07T00:19:56.954Z,100156.00
2019-04-07T00:22:28.094Z,100157.33
2019-04-07T00:24:58.398Z,100155.20
2019-04-07T00:27:28.532Z,100165.18
2019-04-07T00:29:59.893Z,100155.64
2019-04-07T00:32:30.392Z,100154.05
2019-04-07T00:35:00.607Z,100148.33
2019-04-07T00:37:31.158Z,100146.17
2019-04-07T00:40:02.231Z,100151.58
2019-04-07T00:42:32.643Z,100156.16
2019-04-07T00:45:03.482Z,100145.61
2019-04-07T00:47:33.957Z,100152.34
2019-04-07T00:50:04.530Z,100150.27
2019-04-07T00:52:34.930Z,100155.20
2019-04-07T00:55:06.599Z,100156.68
2019-04-07T00:57:37.798Z,100155.36
2019-04-07T01:00:10.587Z,100154.13
2019-04-07T01:02:41.491Z,100148.09
2019-04-07T01:05:12.687Z,100157.41
2019-04-07T01:07:43.629Z,100159.00
2019-04-07T01:10:14.116Z,100167.41
2019-04-07T01:12:44.559Z,100165.66
2019-04-07T01:15:15.127Z,100167.48
2019-04-07T01:17:45.704Z,100166.30
2019-04-07T01:20:17.487Z,100165.11
2019-04-07T01:22:48.523Z,100163.95
2019-04-07T01:25:19.296Z,100164.85
2019-04-07T01:27:49.956Z,100170.24
2019-04-07T01:30:20.334Z,100170.38
2019-04-07T01:32:51.018Z,100177.57
2019-04-07T01:35:21.366Z,100170.09
2019-04-07T01:37:51.778Z,100168.02
2019-04-07T01:40:22.079Z,100175.06
2019-04-07T01:43:14.260Z,100175.96
2019-04-07T01:46:02.236Z,100183.95
2019-04-07T01:48:49.923Z,100190.66
2019-04-07T01:51:40.154Z,100183.23
2019-04-07T01:54:30.861Z,100184.66
2019-04-07T01:57:20.171Z,100177.77
2019-04-07T02:00:03.104Z,100177.94
2019-04-07T02:02:58.289Z,100180.63
2019-04-07T02:05:41.896Z,100176.75
2019-04-07T02:08:23.216Z,100182.14
2019-04-07T02:11:06.154Z,100181.21
2019-04-07T02:13:43.884Z,100177.12
2019-04-07T02:16:22.682Z,100178.91
2019-04-07T02:19:24.105Z,100183.81
2019-04-07T02:22:04.608Z,100183.86
2019-04-07T02:24:53.068Z,100182.66
2019-04-07T02:27:32.713Z,100180.11
2019-04-07T02:30:39.249Z,100174.82
2019-04-07T02:33:31.303Z,100172.61
2019-04-07T02:36:25.952Z,100175.25
2019-04-07T02:39:19.537Z,100175.16
2019-04-07T02:42:04.703Z,100175.25
2019-04-07T02:44:46.469Z,100172.73
2019-04-07T02:47:28.002Z,100174.19
2019-04-07T02:50:14.150Z,100175.72
2019-04-07T02:53:06.150Z,100180.41
2019-04-07T02:55:55.087Z,100181.81
2019-04-07T02:58:38.090Z,100179.25
2019-04-07T03:01:43.410Z,100187.31
2019-04-07T03:04:38.426Z,100183.85
2019-04-07T03:07:23.811Z,100190.54
2019-04-07T03:10:19.150Z,100189.77
2019-04-07T03:13:07.881Z,100186.27
2019-04-07T03:16:04.329Z,100191.64
2019-04-07T03:18:52.844Z,100190.39
2019-04-07T03:21:50.381Z,100192.18
2019-04-07T03:24:45.630Z,100190.05
2019-04-07T03:27:33.845Z,100191.02
2019-04-07T03:30:33.679Z,100195.02
2019-04-07T03:33:26.150Z,100194.64
2019-04-07T03:36:06.222Z,100196.00
2019-04-07T03:38:53.730Z,100195.22
2019-04-07T03:41:35.323Z,100196.11
2019-04-07T03:44:24.345Z,100203.65
2019-04-07T03:47:08.811Z,100201.98
2019-04-07T03:50:04.262Z,100205.55
2019-04-07T03:53:12.472Z,100199.48
2019-04-07T03:56:04.416Z,100203.48
2019-04-07T03:59:11.702Z,100196.92
2019-04-07T04:02:19.683Z,100193.50
2019-04-07T04:05:01.657Z,100192.64
2019-04-07T04:07:44.230Z,100188.29
2019-04-07T04:10:23.723Z,100193.64
2019-04-07T04:13:12.924Z,100196.35
2019-04-07T04:15:51.471Z,100198.59
2019-04-07T04:18:22.542Z,100202.59
2019-04-07T04:20:52.903Z,100205.27
2019-04-07T04:23:23.206Z,100208.84
2019-04-07T04:25:53.736Z,100209.73
2019-04-07T04:28:24.104Z,100212.51
2019-04-07T04:30:54.225Z,100209.01
2019-04-07T04:33:24.357Z,100213.40
2019-04-07T04:35:54.549Z,100213.89
2019-04-07T04:38:24.664Z,100215.25
2019-04-07T04:40:55.066Z,100222.77
2019-04-07T04:43:25.488Z,100224.05
2019-04-07T04:45:56.827Z,100224.45
2019-04-07T04:48:27.835Z,100226.23
2019-04-07T04:50:58.193Z,100232.83
2019-04-07T04:53:29.139Z,100232.60
2019-04-07T04:55:59.600Z,100235.60
2019-04-07T04:58:30.291Z,100233.78
2019-04-07T05:01:00.972Z,100237.31
2019-04-07T05:03:31.582Z,100239.53
2019-04-07T05:06:02.390Z,100240.81
2019-04-07T05:08:32.517Z,100243.42
2019-04-07T05:11:03.124Z,100256.12
2019-04-07T05:13:34.151Z,100250.37
2019-04-07T05:16:04.988Z,100250.34
2019-04-07T05:18:35.996Z,100249.42
2019-04-07T05:21:06.144Z,100254.24
2019-04-07T05:23:36.429Z,100255.50
2019-04-07T05:26:06.985Z,100257.17
2019-04-07T05:28:37.950Z,100257.57
2019-04-07T05:31:08.833Z,100258.39
2019-04-07T05:33:39.933Z,100267.96
2019-04-07T05:36:10.433Z,100270.53
2019-04-07T05:38:40.997Z,100271.31
2019-04-07T05:41:11.785Z,100271.71
2019-04-07T05:43:42.703Z,100269.89
2019-04-07T05:46:13.713Z,100280.78
2019-04-07T05:48:44.537Z,100282.03
2019-04-07T05:51:14.817Z,100280.17
2019-04-07T05:53:47.409Z,100285.31
2019-04-07T05:56:18.563Z,100277.39
2019-04-07T05:58:48.850Z,100284.81
2019-04-07T06:01:23.179Z,100289.52
2019-04-07T06:03:51.122Z,100285.84
2019-04-07T06:06:21.597Z,100291.83
2019-04-07T06:08:51.881Z,100287.36
2019-04-07T06:11:22.049Z,100289.42
2019-04-07T06:13:52.879Z,100295.02
2019-04-07T06:16:23.733Z,100290.97
2019-04-07T06:18:53.929Z,100291.79
2019-04-07T06:21:26.214Z,100295.63
2019-04-07T06:23:59.866Z,100298.16
2019-04-07T06:26:28.358Z,100296.36
2019-04-07T06:28:59.108Z,100291.77
2019-04-07T06:31:32.196Z,100294.37
2019-04-07T06:34:01.940Z,100296.47
2019-04-07T06:36:32.115Z,100293.62
2019-04-07T06:39:03.790Z,100295.66
2019-04-07T06:41:34.300Z,100296.82
2019-04-07T06:44:11.277Z,100290.97
2019-04-07T06:46:45.825Z,100298.87
2019-04-07T06:49:33.820Z,100298.83
2019-04-07T06:52:39.503Z,100297.84
2019-04-07T06:55:33.363Z,100298.56
2019-04-07T06:58:38.812Z,100296.49
2019-04-07T07:01:29.677Z,100300.71
2019-04-07T07:04:17.987Z,100301.37
2019-04-07T07:07:07.343Z,100297.19
2019-04-07T07:09:54.825Z,100293.77
2019-04-07T07:12:50.698Z,100302.14
2019-04-07T07:15:49.376Z,100295.80
2019-04-07T07:18:40.336Z,100299.06
2019-04-07T07:21:31.521Z,100306.74
2019-04-07T07:24:04.962Z,100300.63
2019-04-07T07:26:35.551Z,100298.67
2019-04-07T07:29:06.697Z,100299.21
2019-04-07T07:31:37.899Z,100301.03
2019-04-07T07:34:10.118Z,100294.13
2019-04-07T07:36:40.802Z,100301.91
2019-04-07T07:39:12.551Z,100299.36
2019-04-07T07:41:43.422Z,100297.76
2019-04-07T07:44:14.387Z,100302.36
2019-04-07T07:46:44.745Z,100302.38
2019-04-07T07:49:14.917Z,100304.22
2019-04-07T07:51:47.550Z,100312.20
2019-04-07T07:54:17.288Z,100313.25
2019-04-07T07:56:50.205Z,100311.45
2019-04-07T07:59:20.074Z,100307.07
2019-04-07T08:01:51.671Z,100304.81
2019-04-07T08:04:24.950Z,100307.17
2019-04-07T08:06:54.533Z,100313.85
2019-04-07T08:09:25.988Z,100316.62
2019-04-07T08:11:56.630Z,100304.00
2019-04-07T08:14:27.366Z,100304.87
2019-04-07T08:17:00.164Z,100315.85
2019-04-07T08:19:30.824Z,100312.66
2019-04-07T08:22:01.901Z,100309.81
2019-04-07T08:24:32.712Z,100313.20
2019-04-07T08:27:04.022Z,100314.87
2019-04-07T08:29:37.141Z,100310.74
2019-04-07T08:32:06.605Z,100315.10
2019-04-07T08:34:37.238Z,100309.37
2019-04-07T08:37:08.365Z,100307.12
2019-04-07T08:39:38.817Z,100312.75
2019-04-07T08:42:11.156Z,100312.10
2019-04-07T08:44:41.896Z,100313.70
2019-04-07T08:47:18.990Z,100293.50
2019-04-07T08:49:44.077Z,100305.11
2019-04-07T08:52:15.712Z,100302.55
2019-04-07T08:54:50.377Z,100306.48
2019-04-07T08:57:20.045Z,100300.61
2019-04-07T08:59:50.767Z,100296.95
2019-04-07T09:02:22.427Z,100303.11
2019-04-07T09:04:54.667Z,100299.86
2019-04-07T09:07:24.836Z,100299.38
2019-04-07T09:09:55.551Z,100289.88
2019-04-07T09:12:28.885Z,100286.93
2019-04-07T09:14:58.337Z,100292.13
2019-04-07T09:17:45.778Z,100302.45
2019-04-07T09:20:48.413Z,100297.38
2019-04-07T09:23:48.108Z,100298.31
2019-04-07T09:26:46.806Z,100295.48
2019-04-07T09:29:28.137Z,100299.17
2019-04-07T09:32:17.769Z,100294.25
2019-04-07T09:35:02.002Z,100300.61
2019-04-07T09:37:44.947Z,100296.86
2019-04-07T09:41:00.554Z,100305.37
2019-04-07T09:43:52.883Z,100300.08
2019-04-07T09:46:44.340Z,100301.33
2019-04-07T09:49:39.162Z,100303.30
2019-04-07T09:52:28.354Z,100302.43
2019-04-07T09:55:16.848Z,100296.03
2019-04-07T09:58:08.001Z,100300.13
2019-04-07T10:00:59.694Z,100298.63
2019-04-07T10:03:38.727Z,100299.03
2019-04-07T10:06:33.847Z,100298.20
2019-04-07T10:09:11.804Z,100292.75
2019-04-07T10:11:55.419Z,100297.08
2019-04-07T10:14:48.785Z,100287.66
2019-04-07T10:17:37.250Z,100293.56
2019-04-07T10:20:25.971Z,100292.17
2019-04-07T10:23:17.142Z,100285.75
2019-04-07T10:26:04.122Z,100289.50
2019-04-07T10:28:43.047Z,100286.98
2019-04-07T10:31:20.843Z,100284.98
2019-04-07T10:34:13.435Z,100281.14
2019-04-07T10:37:08.961Z,100281.45
2019-04-07T10:39:59.491Z,100290.50
2019-04-07T10:42:57.716Z,100285.47
2019-04-07T10:45:35.069Z,100291.72
2019-04-07T10:48:25.921Z,100291.50
2019-04-07T10:51:14.949Z,100285.15
2019-04-07T10:54:03.576Z,100287.48
2019-04-07T10:56:51.867Z,100276.91
2019-04-07T10:59:46.469Z,100274.74
2019-04-07T11:02:31.433Z,100282.96
2019-04-07T11:05:09.843Z,100280.49
2019-04-07T11:07:59.002Z,100272.03
2019-04-07T11:10:46.748Z,100283.30
2019-04-07T11:13:34.470Z,100280.83
2019-04-07T11:16:11.509Z,100276.27
2019-04-07T11:19:00.668Z,100283.35
2019-04-07T11:21:43.611Z,100279.73
2019-04-07T11:24:35.906Z,100279.92
2019-04-07T11:27:37.637Z,100278.45
2019-04-07T11:30:14.412Z,100281.80
2019-04-07T11:32:56.348Z,100279.00
2019-04-07T11:35:48.781Z,100279.61
2019-04-07T11:38:41.574Z,100281.70
2019-04-07T11:41:27.136Z,100275.22
2019-04-07T11:44:26.568Z,100272.95
2019-04-07T11:47:09.841Z,100274.39
2019-04-07T11:49:55.688Z,100277.56
2019-04-07T11:52:32.077Z,100275.09
2019-04-07T11:55:31.280Z,100272.65
2019-04-07T11:58:15.611Z,100273.39
2019-04-07T12:00:51.562Z,100268.63
2019-04-07T12:03:35.997Z,100267.89
2019-04-07T12:06:14.362Z,100263.34
2019-04-07T12:09:03.316Z,100264.78
2019-04-07T12:12:05.810Z,100270.16
2019-04-07T12:14:57.721Z,100268.17
2019-04-07T12:17:50.259Z,100269.62
2019-04-07T12:20:38.521Z,100271.27
2019-04-07T12:23:27.825Z,100273.73
2019-04-07T12:26:20.544Z,100259.56
2019-04-07T12:29:09.051Z,100266.55
2019-04-07T12:32:10.604Z,100267.55
2019-04-07T12:35:03.193Z,100257.87
2019-04-07T12:37:50.220Z,100262.38
2019-04-07T12:40:38.825Z,100264.91
2019-04-07T12:43:26.155Z,100257.06
2019-04-07T12:46:22.161Z,100257.06
2019-04-07T12:49:15.493Z,100258.56
2019-04-07T12:52:05.465Z,100251.50
2019-04-07T12:54:56.881Z,100245.28
2019-04-07T12:57:44.771Z,100248.81
2019-04-07T13:00:54.455Z,100247.12
2019-04-07T13:03:26.267Z,100240.77
2019-04-07T13:06:33.597Z,100242.70
2019-04-07T13:09:16.095Z,100247.61
2019-04-07T13:11:55.815Z,100244.23
2019-04-07T13:14:44.052Z,100235.70
2019-04-07T13:17:39.762Z,100244.83
2019-04-07T13:20:21.530Z,100241.95
2019-04-07T13:23:17.671Z,100245.20
2019-04-07T13:26:30.232Z,100231.30
2019-04-07T13:29:02.339Z,100234.28
2019-04-07T13:31:56.850Z,100230.07
2019-04-07T13:34:49.781Z,100231.77
2019-04-07T13:37:35.897Z,100233.61
2019-04-07T13:40:15.842Z,100227.83
2019-04-07T13:43:17.634Z,100233.30
2019-04-07T13:46:20.639Z,100225.23
2019-04-07T13:49:05.218Z,100223.94
2019-04-07T13:52:00.616Z,100229.39
2019-04-07T13:54:50.104Z,100219.99
2019-04-07T13:57:43.912Z,100222.88
2019-04-07T14:00:45.323Z,100219.73
2019-04-07T14:03:42.056Z,100215.98
2019-04-07T14:06:32.824Z,100221.20
2019-04-07T14:09:27.179Z,100203.44
2019-04-07T14:12:18.670Z,100210.23
2019-04-07T14:15:05.212Z,100209.09
2019-04-07T14:18:03.626Z,100212.94
2019-04-07T14:20:43.109Z,100210.93
2019-04-07T14:23:34.254Z,100212.84
2019-04-07T14:26:29.624Z,100211.75
2019-04-07T14:29:20.873Z,100204.33
2019-04-07T14:32:09.934Z,100206.44
2019-04-07T14:35:26.935Z,100203.64
2019-04-07T14:38:29.067Z,100207.18
2019-04-07T14:41:29.247Z,100204.78
2019-04-07T14:44:25.986Z,100210.05
2019-04-07T14:47:16.969Z,100204.69
2019-04-07T14:50:04.929Z,100212.43
2019-04-07T14:53:14.315Z,100214.63
2019-04-07T14:55:57.178Z,100212.05
2019-04-07T14:58:53.829Z,100213.77
2019-04-07T15:01:39.729Z,100200.23
2019-04-07T15:04:10.790Z,100209.85
2019-04-07T15:06:42.816Z,100201.80
2019-04-07T15:09:26.412Z,100205.05
2019-04-07T15:12:14.750Z,100205.40
2019-04-07T15:14:37.339Z,100210.00
2019-04-07T15:17:07.810Z,100200.95
2019-04-07T15:19:38.653Z,100206.75
2019-04-07T15:22:10.449Z,100210.17
2019-04-07T15:24:46.714Z,100206.84
2019-04-07T15:27:23.320Z,100204.84
2019-04-07T15:29:52.375Z,100208.27
2019-04-07T15:32:26.592Z,100211.13
2019-04-07T15:34:54.613Z,100208.27
2019-04-07T15:37:25.852Z,100207.20
2019-04-07T15:39:57.030Z,100206.52
2019-04-07T15:42:37.739Z,100211.22
2019-04-07T15:44:59.966Z,100211.00
2019-04-07T15:47:30.914Z,100209.87
2019-04-07T15:50:01.212Z,100211.58
2019-04-07T15:52:32.405Z,100201.75
2019-04-07T15:55:02.567Z,100206.05
2019-04-07T15:57:33.178Z,100205.44
2019-04-07T16:00:05.266Z,100204.35
2019-04-07T16:02:40.877Z,100209.02
2019-04-07T16:05:10.455Z,100205.50
2019-04-07T16:07:41.824Z,100208.00
2019-04-07T16:10:12.233Z,100203.95
2019-04-07T16:12:46.507Z,100209.60
2019-04-07T16:15:16.502Z,100209.94
2019-04-07T16:17:47.571Z,100215.25
2019-04-07T16:20:22.887Z,100217.57
2019-04-07T16:22:52.685Z,100216.63
2019-04-07T16:25:27.503Z,100216.83
2019-04-07T16:27:54.908Z,100217.30
2019-04-07T16:30:25.881Z,100224.67
2019-04-07T16:32:59.692Z,100224.12
2019-04-07T16:35:28.054Z,100224.97
2019-04-07T16:38:00.041Z,100223.57
2019-04-07T16:40:30.191Z,100222.41
2019-04-07T16:43:11.668Z,100224.33
2019-04-07T16:45:34.011Z,100219.91
2019-04-07T16:48:06.193Z,100224.61
2019-04-07T16:50:36.901Z,100225.45
2019-04-07T16:53:08.239Z,100224.95
2019-04-07T16:55:47.448Z,100223.76
2019-04-07T16:58:15.872Z,100223.22
2019-04-07T17:00:46.185Z,100232.44
2019-04-07T17:03:18.398Z,100231.62
2019-04-07T17:05:55.745Z,100233.82
2019-04-07T17:08:24.617Z,100236.38
2019-04-07T17:10:56.125Z,100238.58
2019-04-07T17:13:34.692Z,100237.19
2019-04-07T17:15:59.347Z,100243.98
2019-04-07T17:18:41.109Z,100242.65
2019-04-07T17:21:15.597Z,100247.40
2019-04-07T17:23:46.302Z,100245.55
2019-04-07T17:26:16.472Z,100245.18
2019-04-07T17:28:48.465Z,100253.24
2019-04-07T17:31:18.809Z,100251.73
2019-04-07T17:33:49.073Z,100258.20
2019-04-07T17:36:21.663Z,100256.83
2019-04-07T17:39:14.488Z,100264.08
2019-04-07T17:41:48.309Z,100263.95
2019-04-07T17:44:32.747Z,100265.42
2019-04-07T17:47:12.482Z,100271.62
2019-04-07T17:50:12.623Z,100272.23
2019-04-07T17:53:14.148Z,100273.55
2019-04-07T17:55:58.968Z,100277.42
2019-04-07T17:59:04.561Z,100280.00
2019-04-07T18:02:00.425Z,100280.66
2019-04-07T18:05:08.457Z,100285.75
2019-04-07T18:08:01.807Z,100284.55
2019-04-07T18:11:00.132Z,100294.50
2019-04-07T18:13:50.901Z,100299.03
2019-04-07T18:16:37.749Z,100301.87
2019-04-07T18:19:31.501Z,100303.77
2019-04-07T18:22:11.196Z,100316.11
2019-04-07T18:25:05.241Z,100316.66
2019-04-07T18:28:07.654Z,100316.98
2019-04-07T18:31:13.286Z,100315.71
2019-04-07T18:34:04.061Z,100328.52
2019-04-07T18:36:54.290Z,100328.64
2019-04-07T18:39:54.555Z,100328.84
2019-04-07T18:42:49.397Z,100338.17
2019-04-07T18:45:44.066Z,100341.76
2019-04-07T18:48:32.868Z,100342.34
2019-04-07T18:51:18.576Z,100342.09
2019-04-07T18:54:05.367Z,100352.41
2019-04-07T18:56:44.064Z,100358.42
2019-04-07T18:59:22.388Z,100355.31
2019-04-07T19:02:14.324Z,100363.14
2019-04-07T19:05:03.953Z,100362.47
2019-04-07T19:07:54.494Z,100361.37
2019-04-07T19:11:06.231Z,100367.41
2019-04-07T19:13:44.617Z,100371.66
2019-04-07T19:16:27.691Z,100368.09
2019-04-07T19:19:15.576Z,100377.75
2019-04-07T19:22:10.996Z,100377.69
2019-04-07T19:24:49.532Z,100375.83
2019-04-07T19:27:42.632Z,100376.14
2019-04-07T19:30:26.842Z,100381.68
2019-04-07T19:33:15.124Z,100386.19
2019-04-07T19:36:10.059Z,100381.13
2019-04-07T19:38:51.151Z,100379.49
2019-04-07T19:41:56.356Z,100383.28
2019-04-07T19:44:46.183Z,100384.41
2019-04-07T19:47:41.688Z,100385.52
2019-04-07T19:50:34.973Z,100383.22
2019-04-07T19:53:32.557Z,100386.53
2019-04-07T19:56:33.798Z,100383.52
2019-04-07T19:59:22.135Z,100387.23
2019-04-07T20:02:03.629Z,100383.59
2019-04-07T20:04:53.519Z,100384.23
2019-04-07T20:07:42.832Z,100391.87
2019-04-07T20:10:33.755Z,100398.42
2019-04-07T20:13:19.887Z,100396.94
2019-04-07T20:16:01.140Z,100400.29
2019-04-07T20:18:58.568Z,100399.11
2019-04-07T20:21:55.054Z,100400.27
2019-04-07T20:24:46.429Z,100405.84
2019-04-07T20:27:37.422Z,100402.97
2019-04-07T20:30:21.026Z,100408.53
2019-04-07T20:33:02.750Z,100413.56
2019-04-07T20:36:01.132Z,100415.63
2019-04-07T20:38:37.965Z,100411.45
2019-04-07T20:41:23.981Z,100413.09
2019-04-07T20:44:16.691Z,100414.93
2019-04-07T20:46:59.355Z,100415.05
2019-04-07T20:49:58.787Z,100413.00
2019-04-07T20:52:50.532Z,100413.64
2019-04-07T20:55:30.941Z,100413.84
2019-04-07T20:58:25.404Z,100413.53
2019-04-07T21:01:18.748Z,100411.10
2019-04-07T21:04:19.760Z,100414.36
2019-04-07T21:07:11.262Z,100417.19
2019-04-07T21:10:04.497Z,100414.25
2019-04-07T21:12:50.659Z,100420.22
2019-04-07T21:15:53.090Z,100418.11
2019-04-07T21:18:45.259Z,100420.03
2019-04-07T21:21:41.424Z,100423.33
2019-04-07T21:24:19.862Z,100421.75
2019-04-07T21:26:59.354Z,100429.56
2019-04-07T21:29:53.739Z,100430.94
2019-04-07T21:32:41.777Z,100427.09
2019-04-07T21:35:19.472Z,100427.66
2019-04-07T21:38:06.377Z,100428.56
2019-04-07T21:40:55.547Z,100427.83
2019-04-07T21:43:44.614Z,100417.79
2019-04-07T21:46:27.471Z,100426.29
2019-04-07T21:49:25.795Z,100423.84
2019-04-07T21:52:04.577Z,100426.66
2019-04-07T21:54:57.832Z,100427.66
2019-04-07T21:57:53.571Z,100427.77
2019-04-07T22:00:44.012Z,100433.66
2019-04-07T22:03:39.510Z,100430.68
2019-04-07T22:06:18.927Z,100431.73
2019-04-07T22:08:56.292Z,100427.05
2019-04-07T22:11:28.956Z,100432.88
2019-04-07T22:13:58.332Z,100432.08
2019-04-07T22:16:31.377Z,100434.45
2019-04-07T22:19:01.383Z,100430.48
2019-04-07T22:21:32.011Z,100433.22
2019-04-07T22:24:03.067Z,100432.89
2019-04-07T22:26:33.634Z,100437.41
2019-04-07T22:29:04.587Z,100437.93
2019-04-07T22:32:03.429Z,100440.25
2019-04-07T22:34:34.075Z,100435.55
2019-04-07T22:37:04.765Z,100445.41
2019-04-07T22:39:34.947Z,100446.39
2019-04-07T22:42:05.193Z,100442.94
2019-04-07T22:44:35.578Z,100446.58
2019-04-07T22:47:07.090Z,100444.45
2019-04-07T22:49:38.773Z,100440.14
2019-04-07T22:52:09.648Z,100440.19
2019-04-07T22:54:40.672Z,100438.97
2019-04-07T22:57:35.488Z,100439.48
2019-04-07T23:00:14.967Z,100436.97
2019-04-07T23:02:48.602Z,100440.56
2019-04-07T23:05:19.751Z,100435.02
2019-04-07T23:07:50.191Z,100442.66
2019-04-07T23:10:20.333Z,100445.83
2019-04-07T23:12:51.069Z,100445.39
2019-04-07T23:15:21.214Z,100445.47
2019-04-07T23:17:51.438Z,100449.50
2019-04-07T23:20:21.625Z,100444.28
2019-04-07T23:22:52.104Z,100450.13
2019-04-07T23:25:23.055Z,100450.22
2019-04-07T23:27:54.298Z,100453.41
2019-04-07T23:30:27.625Z,100451.70
2019-04-07T23:32:57.910Z,100458.36
2019-04-07T23:35:29.138Z,100454.94
2019-04-07T23:37:59.488Z,100452.38
2019-04-07T23:40:30.104Z,100461.25
2019-04-07T23:43:00.635Z,100458.65
2019-04-07T23:45:31.579Z,100462.27
2019-04-07T23:48:02.054Z,100462.81
2019-04-07T23:50:32.227Z,100466.86
2019-04-07T23:53:24.058Z,100467.28
2019-04-07T23:55:55.213Z,100470.89
2019-04-07T23:58:25.579Z,100478.25
